sensor_id;sensor_type;location;lat;lon;timestamp;temperature;humidity
73133;DHT22;61320;52.008;4.530;2023-07-09T00:00:47;25.07;68.24
73133;DHT22;61320;52.008;4.530;2023-07-09T00:03:14;25.06;68.31
73133;DHT22;61320;52.008;4.530;2023-07-09T00:05:41;25.03;68.31
73133;DHT22;61320;52.008;4.530;2023-07-09T00:08:24;25.00;68.29
73133;DHT22;61320;52.008;4.530;2023-07-09T00:10:52;24.98;68.34
73133;DHT22;61320;52.008;4.530;2023-07-09T00:13:17;25.00;68.49
73133;DHT22;61320;52.008;4.530;2023-07-09T00:15:43;24.98;68.61
73133;DHT22;61320;52.008;4.530;2023-07-09T00:18:09;24.97;68.71
73133;DHT22;61320;52.008;4.530;2023-07-09T00:20:35;24.95;68.83
73133;DHT22;61320;52.008;4.530;2023-07-09T00:23:00;24.94;68.81
73133;DHT22;61320;52.008;4.530;2023-07-09T00:25:30;24.90;68.76
73133;DHT22;61320;52.008;4.530;2023-07-09T00:27:56;24.87;68.77
73133;DHT22;61320;52.008;4.530;2023-07-09T00:30:23;24.87;68.78
73133;DHT22;61320;52.008;4.530;2023-07-09T00:32:51;24.87;68.82
73133;DHT22;61320;52.008;4.530;2023-07-09T00:35:18;24.83;68.76
73133;DHT22;61320;52.008;4.530;2023-07-09T00:37:45;24.84;68.65
73133;DHT22;61320;52.008;4.530;2023-07-09T00:40:20;24.83;68.76
73133;DHT22;61320;52.008;4.530;2023-07-09T00:42:53;24.80;68.86
73133;DHT22;61320;52.008;4.530;2023-07-09T00:45:26;24.79;68.81
73133;DHT22;61320;52.008;4.530;2023-07-09T00:48:04;24.74;68.85
73133;DHT22;61320;52.008;4.530;2023-07-09T00:50:48;24.76;68.95
73133;DHT22;61320;52.008;4.530;2023-07-09T00:55:51;24.72;68.95
73133;DHT22;61320;52.008;4.530;2023-07-09T00:58:20;24.69;68.96
73133;DHT22;61320;52.008;4.530;2023-07-09T01:00:52;24.66;69.00
73133;DHT22;61320;52.008;4.530;2023-07-09T01:03:36;24.65;69.11
73133;DHT22;61320;52.008;4.530;2023-07-09T01:06:03;24.63;69.22
73133;DHT22;61320;52.008;4.530;2023-07-09T01:08:33;24.63;69.24
73133;DHT22;61320;52.008;4.530;2023-07-09T01:11:00;24.62;69.34
73133;DHT22;61320;52.008;4.530;2023-07-09T01:13:30;24.60;69.44
73133;DHT22;61320;52.008;4.530;2023-07-09T01:15:58;24.59;69.45
73133;DHT22;61320;52.008;4.530;2023-07-09T01:18:24;24.59;69.46
73133;DHT22;61320;52.008;4.530;2023-07-09T01:21:03;24.59;69.61
73133;DHT22;61320;52.008;4.530;2023-07-09T01:23:32;24.55;69.60
73133;DHT22;61320;52.008;4.530;2023-07-09T01:25:58;24.57;69.60
73133;DHT22;61320;52.008;4.530;2023-07-09T01:28:23;24.59;69.65
73133;DHT22;61320;52.008;4.530;2023-07-09T01:30:49;24.57;69.74
73133;DHT22;61320;52.008;4.530;2023-07-09T01:33:21;24.57;69.65
73133;DHT22;61320;52.008;4.530;2023-07-09T01:35:47;24.60;69.57
73133;DHT22;61320;52.008;4.530;2023-07-09T01:38:13;24.60;69.52
73133;DHT22;61320;52.008;4.530;2023-07-09T01:40:39;24.60;69.42
73133;DHT22;61320;52.008;4.530;2023-07-09T01:43:05;24.65;69.49
73133;DHT22;61320;52.008;4.530;2023-07-09T01:45:32;24.63;69.50
73133;DHT22;61320;52.008;4.530;2023-07-09T01:47:59;24.62;69.50
73133;DHT22;61320;52.008;4.530;2023-07-09T01:50:25;24.63;69.51
73133;DHT22;61320;52.008;4.530;2023-07-09T01:52:52;24.60;69.48
73133;DHT22;61320;52.008;4.530;2023-07-09T01:55:18;24.59;69.42
73133;DHT22;61320;52.008;4.530;2023-07-09T01:57:44;24.59;69.39
73133;DHT22;61320;52.008;4.530;2023-07-09T02:00:14;24.55;69.47
73133;DHT22;61320;52.008;4.530;2023-07-09T02:02:45;24.56;69.44
73133;DHT22;61320;52.008;4.530;2023-07-09T02:05:14;24.55;69.62
73133;DHT22;61320;52.008;4.530;2023-07-09T02:07:40;24.52;69.61
73133;DHT22;61320;52.008;4.530;2023-07-09T02:10:06;24.52;69.71
73133;DHT22;61320;52.008;4.530;2023-07-09T02:12:32;24.48;69.67
73133;DHT22;61320;52.008;4.530;2023-07-09T02:14:58;24.45;69.75
73133;DHT22;61320;52.008;4.530;2023-07-09T02:17:23;24.40;69.86
73133;DHT22;61320;52.008;4.530;2023-07-09T02:19:49;24.39;69.98
73133;DHT22;61320;52.008;4.530;2023-07-09T02:22:15;24.36;70.05
73133;DHT22;61320;52.008;4.530;2023-07-09T02:24:40;24.33;69.96
73133;DHT22;61320;52.008;4.530;2023-07-09T02:27:07;24.30;70.03
73133;DHT22;61320;52.008;4.530;2023-07-09T02:29:35;24.29;70.09
73133;DHT22;61320;52.008;4.530;2023-07-09T02:32:01;24.26;70.00
73133;DHT22;61320;52.008;4.530;2023-07-09T02:34:29;24.26;70.19
73133;DHT22;61320;52.008;4.530;2023-07-09T02:36:56;24.22;70.21
73133;DHT22;61320;52.008;4.530;2023-07-09T02:39:23;24.21;70.30
73133;DHT22;61320;52.008;4.530;2023-07-09T02:41:49;24.16;70.31
73133;DHT22;61320;52.008;4.530;2023-07-09T02:44:16;24.16;70.39
73133;DHT22;61320;52.008;4.530;2023-07-09T02:46:42;24.15;70.43
73133;DHT22;61320;52.008;4.530;2023-07-09T02:49:10;24.12;70.66
73133;DHT22;61320;52.008;4.530;2023-07-09T02:51:36;24.14;70.68
73133;DHT22;61320;52.008;4.530;2023-07-09T02:54:03;24.11;70.63
73133;DHT22;61320;52.008;4.530;2023-07-09T02:56:29;24.08;70.74
73133;DHT22;61320;52.008;4.530;2023-07-09T02:58:56;24.06;70.74
73133;DHT22;61320;52.008;4.530;2023-07-09T03:01:22;24.05;70.99
73133;DHT22;61320;52.008;4.530;2023-07-09T03:03:59;24.02;71.24
73133;DHT22;61320;52.008;4.530;2023-07-09T03:06:26;24.00;71.32
73133;DHT22;61320;52.008;4.530;2023-07-09T03:08:52;24.00;71.48
73133;DHT22;61320;52.008;4.530;2023-07-09T03:11:19;23.94;71.67
73133;DHT22;61320;52.008;4.530;2023-07-09T03:13:45;23.93;71.70
73133;DHT22;61320;52.008;4.530;2023-07-09T03:16:12;23.91;71.52
73133;DHT22;61320;52.008;4.530;2023-07-09T03:18:38;23.91;71.52
73133;DHT22;61320;52.008;4.530;2023-07-09T03:21:04;23.87;71.70
73133;DHT22;61320;52.008;4.530;2023-07-09T03:23:29;23.85;71.75
73133;DHT22;61320;52.008;4.530;2023-07-09T03:25:56;23.85;71.60
73133;DHT22;61320;52.008;4.530;2023-07-09T03:28:23;23.82;71.73
73133;DHT22;61320;52.008;4.530;2023-07-09T03:30:49;23.82;71.76
73133;DHT22;61320;52.008;4.530;2023-07-09T03:35:43;23.79;71.77
73133;DHT22;61320;52.008;4.530;2023-07-09T03:38:10;23.78;71.96
73133;DHT22;61320;52.008;4.530;2023-07-09T03:40:37;23.75;71.91
73133;DHT22;61320;52.008;4.530;2023-07-09T03:43:08;23.77;72.23
73133;DHT22;61320;52.008;4.530;2023-07-09T03:45:36;23.79;72.50
73133;DHT22;61320;52.008;4.530;2023-07-09T03:48:02;23.84;72.46
73133;DHT22;61320;52.008;4.530;2023-07-09T03:50:28;23.88;72.45
73133;DHT22;61320;52.008;4.530;2023-07-09T03:52:53;23.85;72.34
73133;DHT22;61320;52.008;4.530;2023-07-09T03:55:19;23.89;72.44
73133;DHT22;61320;52.008;4.530;2023-07-09T03:57:45;23.89;72.32
73133;DHT22;61320;52.008;4.530;2023-07-09T04:00:10;23.87;72.42
73133;DHT22;61320;52.008;4.530;2023-07-09T04:02:41;23.89;72.53
73133;DHT22;61320;52.008;4.530;2023-07-09T04:05:09;23.88;72.58
73133;DHT22;61320;52.008;4.530;2023-07-09T04:07:36;23.88;72.47
73133;DHT22;61320;52.008;4.530;2023-07-09T04:10:02;23.87;72.48
73133;DHT22;61320;52.008;4.530;2023-07-09T04:12:28;23.87;72.39
73133;DHT22;61320;52.008;4.530;2023-07-09T04:14:53;23.88;72.38
73133;DHT22;61320;52.008;4.530;2023-07-09T04:17:19;23.85;72.30
73133;DHT22;61320;52.008;4.530;2023-07-09T04:19:45;23.85;72.35
73133;DHT22;61320;52.008;4.530;2023-07-09T04:22:11;23.87;72.30
73133;DHT22;61320;52.008;4.530;2023-07-09T04:24:36;23.87;72.25
73133;DHT22;61320;52.008;4.530;2023-07-09T04:27:02;23.87;72.21
73133;DHT22;61320;52.008;4.530;2023-07-09T04:29:32;23.87;72.27
73133;DHT22;61320;52.008;4.530;2023-07-09T04:32:07;23.87;72.22
73133;DHT22;61320;52.008;4.530;2023-07-09T04:34:33;23.85;72.17
73133;DHT22;61320;52.008;4.530;2023-07-09T04:36:59;23.87;72.36
73133;DHT22;61320;52.008;4.530;2023-07-09T04:39:24;23.88;72.35
73133;DHT22;61320;52.008;4.530;2023-07-09T04:41:50;23.93;72.39
73133;DHT22;61320;52.008;4.530;2023-07-09T04:44:15;23.95;72.29
73133;DHT22;61320;52.008;4.530;2023-07-09T04:46:41;23.97;72.24
73133;DHT22;61320;52.008;4.530;2023-07-09T04:49:07;23.98;72.29
73133;DHT22;61320;52.008;4.530;2023-07-09T04:51:32;23.98;72.31
73133;DHT22;61320;52.008;4.530;2023-07-09T04:53:58;24.01;72.32
73133;DHT22;61320;52.008;4.530;2023-07-09T04:56:29;24.04;72.23
73133;DHT22;61320;52.008;4.530;2023-07-09T04:58:56;24.06;72.16
73133;DHT22;61320;52.008;4.530;2023-07-09T05:01:21;24.08;72.21
73133;DHT22;61320;52.008;4.530;2023-07-09T05:03:47;24.09;72.18
73133;DHT22;61320;52.008;4.530;2023-07-09T05:06:13;24.14;72.16
73133;DHT22;61320;52.008;4.530;2023-07-09T05:08:38;24.14;72.22
73133;DHT22;61320;52.008;4.530;2023-07-09T05:11:04;24.18;72.29
73133;DHT22;61320;52.008;4.530;2023-07-09T05:13:29;24.21;72.07
73133;DHT22;61320;52.008;4.530;2023-07-09T05:15:55;24.25;72.24
73133;DHT22;61320;52.008;4.530;2023-07-09T05:18:20;24.30;72.27
73133;DHT22;61320;52.008;4.530;2023-07-09T05:20:47;24.33;72.23
73133;DHT22;61320;52.008;4.530;2023-07-09T05:23:13;24.37;72.32
73133;DHT22;61320;52.008;4.530;2023-07-09T05:25:38;24.43;72.03
73133;DHT22;61320;52.008;4.530;2023-07-09T05:28:05;24.51;71.93
73133;DHT22;61320;52.008;4.530;2023-07-09T05:30:32;24.56;71.77
73133;DHT22;61320;52.008;4.530;2023-07-09T05:32:57;24.60;71.68
73133;DHT22;61320;52.008;4.530;2023-07-09T05:35:25;24.66;71.35
73133;DHT22;61320;52.008;4.530;2023-07-09T05:37:52;24.69;70.78
73133;DHT22;61320;52.008;4.530;2023-07-09T05:40:18;24.79;70.53
73133;DHT22;61320;52.008;4.530;2023-07-09T05:42:44;24.84;70.60
73133;DHT22;61320;52.008;4.530;2023-07-09T05:47:35;24.91;70.45
73133;DHT22;61320;52.008;4.530;2023-07-09T05:50:01;24.95;70.11
73133;DHT22;61320;52.008;4.530;2023-07-09T05:52:28;24.97;70.06
73133;DHT22;61320;52.008;4.530;2023-07-09T05:54:55;25.03;70.16
73133;DHT22;61320;52.008;4.530;2023-07-09T05:57:21;25.07;70.49
73133;DHT22;61320;52.008;4.530;2023-07-09T05:59:47;25.13;70.34
73133;DHT22;61320;52.008;4.530;2023-07-09T06:02:19;25.17;70.36
73133;DHT22;61320;52.008;4.530;2023-07-09T06:04:45;25.17;70.42
73133;DHT22;61320;52.008;4.530;2023-07-09T06:07:12;25.23;70.21
73133;DHT22;61320;52.008;4.530;2023-07-09T06:09:39;25.25;70.00
73133;DHT22;61320;52.008;4.530;2023-07-09T06:12:05;25.30;69.94
73133;DHT22;61320;52.008;4.530;2023-07-09T06:14:32;25.32;69.91
73133;DHT22;61320;52.008;4.530;2023-07-09T06:16:59;25.39;69.78
73133;DHT22;61320;52.008;4.530;2023-07-09T06:19:25;25.41;69.76
73133;DHT22;61320;52.008;4.530;2023-07-09T06:21:51;25.42;68.27
73133;DHT22;61320;52.008;4.530;2023-07-09T06:24:16;25.49;67.89
73133;DHT22;61320;52.008;4.530;2023-07-09T06:26:42;25.48;66.01
73133;DHT22;61320;52.008;4.530;2023-07-09T06:29:07;25.51;64.17
73133;DHT22;61320;52.008;4.530;2023-07-09T06:31:33;25.57;65.66
73133;DHT22;61320;52.008;4.530;2023-07-09T06:33:59;25.58;65.20
73133;DHT22;61320;52.008;4.530;2023-07-09T06:36:24;25.57;64.79
73133;DHT22;61320;52.008;4.530;2023-07-09T06:38:50;25.59;64.85
73133;DHT22;61320;52.008;4.530;2023-07-09T06:41:16;25.61;63.66
73133;DHT22;61320;52.008;4.530;2023-07-09T06:43:42;25.58;63.63
73133;DHT22;61320;52.008;4.530;2023-07-09T06:46:11;25.63;62.66
73133;DHT22;61320;52.008;4.530;2023-07-09T06:48:37;25.62;62.54
73133;DHT22;61320;52.008;4.530;2023-07-09T06:51:03;25.59;61.94
73133;DHT22;61320;52.008;4.530;2023-07-09T06:53:29;25.62;61.86
73133;DHT22;61320;52.008;4.530;2023-07-09T06:55:56;25.61;60.38
73133;DHT22;61320;52.008;4.530;2023-07-09T06:58:26;25.61;60.33
73133;DHT22;61320;52.008;4.530;2023-07-09T07:00:54;25.62;60.76
73133;DHT22;61320;52.008;4.530;2023-07-09T07:03:21;25.58;61.10
73133;DHT22;61320;52.008;4.530;2023-07-09T07:05:50;25.58;61.42
73133;DHT22;61320;52.008;4.530;2023-07-09T07:08:18;25.62;61.26
73133;DHT22;61320;52.008;4.530;2023-07-09T07:10:49;25.62;61.37
73133;DHT22;61320;52.008;4.530;2023-07-09T07:13:15;25.65;59.57
73133;DHT22;61320;52.008;4.530;2023-07-09T07:15:41;25.63;60.86
73133;DHT22;61320;52.008;4.530;2023-07-09T07:18:07;25.68;61.46
73133;DHT22;61320;52.008;4.530;2023-07-09T07:20:33;25.71;61.39
73133;DHT22;61320;52.008;4.530;2023-07-09T07:22:59;25.72;61.43
73133;DHT22;61320;52.008;4.530;2023-07-09T07:25:25;25.75;61.46
73133;DHT22;61320;52.008;4.530;2023-07-09T07:27:51;25.78;59.94
73133;DHT22;61320;52.008;4.530;2023-07-09T07:30:17;25.82;59.97
73133;DHT22;61320;52.008;4.530;2023-07-09T07:32:48;25.81;59.69
73133;DHT22;61320;52.008;4.530;2023-07-09T07:35:17;25.86;60.79
73133;DHT22;61320;52.008;4.530;2023-07-09T07:37:43;25.90;59.83
73133;DHT22;61320;52.008;4.530;2023-07-09T07:40:11;25.93;60.89
73133;DHT22;61320;52.008;4.530;2023-07-09T07:42:37;25.97;60.33
73133;DHT22;61320;52.008;4.530;2023-07-09T07:45:03;25.99;60.40
73133;DHT22;61320;52.008;4.530;2023-07-09T07:47:29;26.04;60.82
73133;DHT22;61320;52.008;4.530;2023-07-09T07:49:55;26.10;60.43
73133;DHT22;61320;52.008;4.530;2023-07-09T07:52:21;26.19;61.13
73133;DHT22;61320;52.008;4.530;2023-07-09T07:54:47;26.27;60.63
73133;DHT22;61320;52.008;4.530;2023-07-09T07:57:12;26.34;60.33
73133;DHT22;61320;52.008;4.530;2023-07-09T07:59:38;26.48;60.78
73133;DHT22;61320;52.008;4.530;2023-07-09T08:02:08;26.52;60.46
73133;DHT22;61320;52.008;4.530;2023-07-09T08:04:35;26.60;60.69
73133;DHT22;61320;52.008;4.530;2023-07-09T08:07:01;26.68;60.13
73133;DHT22;61320;52.008;4.530;2023-07-09T08:09:26;26.74;60.07
73133;DHT22;61320;52.008;4.530;2023-07-09T08:11:52;26.81;60.03
73133;DHT22;61320;52.008;4.530;2023-07-09T08:14:17;26.87;60.99
73133;DHT22;61320;52.008;4.530;2023-07-09T08:16:43;26.94;60.91
73133;DHT22;61320;52.008;4.530;2023-07-09T08:19:09;27.02;61.27
73133;DHT22;61320;52.008;4.530;2023-07-09T09:44:21;28.90;54.81
73133;DHT22;61320;52.008;4.530;2023-07-09T09:49:16;29.03;55.34
73133;DHT22;61320;52.008;4.530;2023-07-09T10:17:56;29.71;52.98
73133;DHT22;61320;52.008;4.530;2023-07-09T10:20:40;29.83;52.90
73133;DHT22;61320;52.008;4.530;2023-07-09T10:25:53;30.09;51.89
73133;DHT22;61320;52.008;4.530;2023-07-09T10:28:45;30.24;52.70
73133;DHT22;61320;52.008;4.530;2023-07-09T10:34:21;30.56;54.14
73133;DHT22;61320;52.008;4.530;2023-07-09T10:37:00;30.85;51.46
73133;DHT22;61320;52.008;4.530;2023-07-09T10:39:43;31.21;51.53
73133;DHT22;61320;52.008;4.530;2023-07-09T10:42:27;31.76;49.54
73133;DHT22;61320;52.008;4.530;2023-07-09T10:50:15;32.29;46.55
73133;DHT22;61320;52.008;4.530;2023-07-09T10:52:47;32.62;47.28
73133;DHT22;61320;52.008;4.530;2023-07-09T10:55:26;33.27;46.39
73133;DHT22;61320;52.008;4.530;2023-07-09T11:00:50;34.64;44.45
73133;DHT22;61320;52.008;4.530;2023-07-09T11:03:21;34.71;41.68
73133;DHT22;61320;52.008;4.530;2023-07-09T11:05:50;34.47;43.59
73133;DHT22;61320;52.008;4.530;2023-07-09T11:08:34;34.28;43.39
73133;DHT22;61320;52.008;4.530;2023-07-09T11:11:14;34.19;43.76
73133;DHT22;61320;52.008;4.530;2023-07-09T11:13:43;33.87;43.82
73133;DHT22;61320;52.008;4.530;2023-07-09T11:16:16;33.65;44.30
73133;DHT22;61320;52.008;4.530;2023-07-09T11:21:20;33.47;46.80
73133;DHT22;61320;52.008;4.530;2023-07-09T11:23:56;33.41;44.54
73133;DHT22;61320;52.008;4.530;2023-07-09T11:28:53;33.07;44.32
73133;DHT22;61320;52.008;4.530;2023-07-09T11:31:34;32.89;45.07
73133;DHT22;61320;52.008;4.530;2023-07-09T11:34:09;32.80;44.22
73133;DHT22;61320;52.008;4.530;2023-07-09T11:41:55;33.68;43.82
73133;DHT22;61320;52.008;4.530;2023-07-09T11:44:25;33.97;43.99
73133;DHT22;61320;52.008;4.530;2023-07-09T11:49:49;34.10;41.00
73133;DHT22;61320;52.008;4.530;2023-07-09T11:59:40;33.04;44.07
73133;DHT22;61320;52.008;4.530;2023-07-09T12:02:16;32.75;45.06
73133;DHT22;61320;52.008;4.530;2023-07-09T12:04:42;32.46;46.36
73133;DHT22;61320;52.008;4.530;2023-07-09T12:07:13;32.29;46.43
73133;DHT22;61320;52.008;4.530;2023-07-09T12:09:47;32.05;47.51
73133;DHT22;61320;52.008;4.530;2023-07-09T12:12:22;31.81;46.78
73133;DHT22;61320;52.008;4.530;2023-07-09T12:14:48;31.54;47.85
73133;DHT22;61320;52.008;4.530;2023-07-09T12:22:12;31.11;48.44
73133;DHT22;61320;52.008;4.530;2023-07-09T12:24:43;31.11;48.58
73133;DHT22;61320;52.008;4.530;2023-07-09T12:27:24;30.99;48.46
73133;DHT22;61320;52.008;4.530;2023-07-09T12:29:56;30.82;50.16
73133;DHT22;61320;52.008;4.530;2023-07-09T12:32:22;30.58;50.06
73133;DHT22;61320;52.008;4.530;2023-07-09T12:34:53;30.36;50.97
73133;DHT22;61320;52.008;4.530;2023-07-09T12:37:20;30.12;51.57
73133;DHT22;61320;52.008;4.530;2023-07-09T12:39:50;29.75;51.38
73133;DHT22;61320;52.008;4.530;2023-07-09T12:47:18;28.74;53.19
73133;DHT22;61320;52.008;4.530;2023-07-09T12:49:45;28.45;54.80
73133;DHT22;61320;52.008;4.530;2023-07-09T12:52:21;28.16;54.59
73133;DHT22;61320;52.008;4.530;2023-07-09T12:55:01;27.98;55.59
73133;DHT22;61320;52.008;4.530;2023-07-09T13:02:23;27.67;56.15
73133;DHT22;61320;52.008;4.530;2023-07-09T13:04:59;27.54;56.91
73133;DHT22;61320;52.008;4.530;2023-07-09T13:09:52;27.47;57.86
73133;DHT22;61320;52.008;4.530;2023-07-09T13:12:18;27.50;58.02
73133;DHT22;61320;52.008;4.530;2023-07-09T13:14:53;27.51;57.15
73133;DHT22;61320;52.008;4.530;2023-07-09T13:17:19;27.46;57.18
73133;DHT22;61320;52.008;4.530;2023-07-09T13:19:44;27.40;58.52
73133;DHT22;61320;52.008;4.530;2023-07-09T13:22:14;27.35;57.91
73133;DHT22;61320;52.008;4.530;2023-07-09T13:24:40;27.37;57.56
73133;DHT22;61320;52.008;4.530;2023-07-09T13:27:12;27.28;57.04
73133;DHT22;61320;52.008;4.530;2023-07-09T13:29:39;27.22;57.62
73133;DHT22;61320;52.008;4.530;2023-07-09T13:32:12;27.10;57.57
73133;DHT22;61320;52.008;4.530;2023-07-09T13:34:39;26.99;57.45
73133;DHT22;61320;52.008;4.530;2023-07-09T13:37:11;26.89;58.37
73133;DHT22;61320;52.008;4.530;2023-07-09T13:39:37;26.84;58.29
73133;DHT22;61320;52.008;4.530;2023-07-09T13:42:04;26.78;58.23
73133;DHT22;61320;52.008;4.530;2023-07-09T13:44:30;26.67;58.32
73133;DHT22;61320;52.008;4.530;2023-07-09T13:46:57;26.58;58.36
73133;DHT22;61320;52.008;4.530;2023-07-09T13:49:25;26.50;59.04
73133;DHT22;61320;52.008;4.530;2023-07-09T13:51:54;26.37;58.45
73133;DHT22;61320;52.008;4.530;2023-07-09T13:54:29;26.24;58.90
73133;DHT22;61320;52.008;4.530;2023-07-09T13:57:04;26.14;59.36
73133;DHT22;61320;52.008;4.530;2023-07-09T13:59:30;26.06;59.21
73133;DHT22;61320;52.008;4.530;2023-07-09T14:01:57;25.94;58.65
73133;DHT22;61320;52.008;4.530;2023-07-09T14:04:26;25.82;59.61
73133;DHT22;61320;52.008;4.530;2023-07-09T14:06:52;25.71;59.37
73133;DHT22;61320;52.008;4.530;2023-07-09T14:09:17;25.61;59.26
73133;DHT22;61320;52.008;4.530;2023-07-09T14:11:50;25.52;60.33
73133;DHT22;61320;52.008;4.530;2023-07-09T14:14:39;25.42;59.93
73133;DHT22;61320;52.008;4.530;2023-07-09T14:17:04;25.20;63.06
73133;DHT22;61320;52.008;4.530;2023-07-09T14:19:29;24.80;65.80
73133;DHT22;61320;52.008;4.530;2023-07-09T14:21:55;24.32;68.40
73133;DHT22;61320;52.008;4.530;2023-07-09T14:24:27;23.93;70.41
73133;DHT22;61320;52.008;4.530;2023-07-09T14:26:55;23.49;73.54
73133;DHT22;61320;52.008;4.530;2023-07-09T14:29:22;23.16;75.69
73133;DHT22;61320;52.008;4.530;2023-07-09T14:34:32;22.41;76.10
73133;DHT22;61320;52.008;4.530;2023-07-09T14:36:59;22.10;77.26
73133;DHT22;61320;52.008;4.530;2023-07-09T14:39:27;21.90;79.32
73133;DHT22;61320;52.008;4.530;2023-07-09T14:41:54;21.79;80.11
73133;DHT22;61320;52.008;4.530;2023-07-09T14:46:49;21.80;81.68
73133;DHT22;61320;52.008;4.530;2023-07-09T14:51:40;21.93;82.73
73133;DHT22;61320;52.008;4.530;2023-07-09T14:54:25;22.04;83.10
73133;DHT22;61320;52.008;4.530;2023-07-09T14:56:52;22.13;83.11
73133;DHT22;61320;52.008;4.530;2023-07-09T14:59:19;22.18;82.90
73133;DHT22;61320;52.008;4.530;2023-07-09T15:01:45;22.25;83.09
73133;DHT22;61320;52.008;4.530;2023-07-09T15:06:48;22.34;83.24
73133;DHT22;61320;52.008;4.530;2023-07-09T15:09:14;22.40;83.10
73133;DHT22;61320;52.008;4.530;2023-07-09T15:11:40;22.38;83.01
73133;DHT22;61320;52.008;4.530;2023-07-09T15:14:12;22.43;83.45
73133;DHT22;61320;52.008;4.530;2023-07-09T15:16:37;22.45;83.35
73133;DHT22;61320;52.008;4.530;2023-07-09T15:19:16;22.52;83.12
73133;DHT22;61320;52.008;4.530;2023-07-09T15:21:42;22.55;83.06
73133;DHT22;61320;52.008;4.530;2023-07-09T15:24:18;22.57;83.12
73133;DHT22;61320;52.008;4.530;2023-07-09T15:26:53;22.58;82.73
73133;DHT22;61320;52.008;4.530;2023-07-09T15:29:21;22.68;82.81
73133;DHT22;61320;52.008;4.530;2023-07-09T15:31:47;22.78;83.46
73133;DHT22;61320;52.008;4.530;2023-07-09T15:34:12;22.82;82.75
73133;DHT22;61320;52.008;4.530;2023-07-09T15:36:51;22.91;83.16
73133;DHT22;61320;52.008;4.530;2023-07-09T15:39:18;22.94;82.84
73133;DHT22;61320;52.008;4.530;2023-07-09T15:41:44;23.00;82.95
73133;DHT22;61320;52.008;4.530;2023-07-09T15:44:16;22.98;82.10
73133;DHT22;61320;52.008;4.530;2023-07-09T15:46:53;22.99;82.64
73133;DHT22;61320;52.008;4.530;2023-07-09T15:49:21;22.95;82.07
73133;DHT22;61320;52.008;4.530;2023-07-09T15:51:47;22.87;81.30
73133;DHT22;61320;52.008;4.530;2023-07-09T15:54:13;22.79;80.86
73133;DHT22;61320;52.008;4.530;2023-07-09T15:56:39;22.75;81.21
73133;DHT22;61320;52.008;4.530;2023-07-09T15:59:05;22.75;81.43
73133;DHT22;61320;52.008;4.530;2023-07-09T16:01:31;22.73;80.92
73133;DHT22;61320;52.008;4.530;2023-07-09T16:04:01;22.75;81.18
73133;DHT22;61320;52.008;4.530;2023-07-09T16:06:33;22.75;81.15
73133;DHT22;61320;52.008;4.530;2023-07-09T16:09:00;22.72;80.78
73133;DHT22;61320;52.008;4.530;2023-07-09T16:11:26;22.69;80.87
73133;DHT22;61320;52.008;4.530;2023-07-09T16:13:53;22.67;80.55
73133;DHT22;61320;52.008;4.530;2023-07-09T16:16:22;22.58;78.62
73133;DHT22;61320;52.008;4.530;2023-07-09T16:18:48;22.50;79.86
73133;DHT22;61320;52.008;4.530;2023-07-09T16:21:26;22.50;80.91
73133;DHT22;61320;52.008;4.530;2023-07-09T16:23:54;22.50;80.02
73133;DHT22;61320;52.008;4.530;2023-07-09T16:26:20;22.52;80.25
73133;DHT22;61320;52.008;4.530;2023-07-09T16:28:49;22.50;80.30
73133;DHT22;61320;52.008;4.530;2023-07-09T16:31:15;22.50;80.02
73133;DHT22;61320;52.008;4.530;2023-07-09T16:33:40;22.45;80.16
73133;DHT22;61320;52.008;4.530;2023-07-09T16:36:15;22.47;80.30
73133;DHT22;61320;52.008;4.530;2023-07-09T16:38:41;22.43;80.24
73133;DHT22;61320;52.008;4.530;2023-07-09T16:41:10;22.47;80.61
73133;DHT22;61320;52.008;4.530;2023-07-09T16:43:38;22.40;80.49
73133;DHT22;61320;52.008;4.530;2023-07-09T16:46:22;22.36;79.73
73133;DHT22;61320;52.008;4.530;2023-07-09T16:48:49;22.29;79.10
73133;DHT22;61320;52.008;4.530;2023-07-09T16:51:16;22.24;79.85
73133;DHT22;61320;52.008;4.530;2023-07-09T16:53:43;22.16;79.37
73133;DHT22;61320;52.008;4.530;2023-07-09T16:56:12;22.14;79.91
73133;DHT22;61320;52.008;4.530;2023-07-09T16:58:38;22.09;80.33
73133;DHT22;61320;52.008;4.530;2023-07-09T17:01:04;22.06;80.06
73133;DHT22;61320;52.008;4.530;2023-07-09T17:03:31;22.01;80.02
73133;DHT22;61320;52.008;4.530;2023-07-09T17:05:57;22.00;80.19
73133;DHT22;61320;52.008;4.530;2023-07-09T17:08:25;21.93;80.79
73133;DHT22;61320;52.008;4.530;2023-07-09T17:10:53;21.90;80.50
73133;DHT22;61320;52.008;4.530;2023-07-09T17:13:23;21.88;80.07
73133;DHT22;61320;52.008;4.530;2023-07-09T17:15:50;21.83;80.26
73133;DHT22;61320;52.008;4.530;2023-07-09T17:18:23;21.83;80.40
73133;DHT22;61320;52.008;4.530;2023-07-09T17:20:52;21.80;80.77
73133;DHT22;61320;52.008;4.530;2023-07-09T17:23:18;21.76;80.36
73133;DHT22;61320;52.008;4.530;2023-07-09T17:25:45;21.73;80.62
73133;DHT22;61320;52.008;4.530;2023-07-09T17:30:36;21.69;80.67
73133;DHT22;61320;52.008;4.530;2023-07-09T17:33:01;21.65;80.56
73133;DHT22;61320;52.008;4.530;2023-07-09T17:35:27;21.62;80.12
73133;DHT22;61320;52.008;4.530;2023-07-09T17:37:55;21.53;80.41
73133;DHT22;61320;52.008;4.530;2023-07-09T17:40:31;21.46;79.59
73133;DHT22;61320;52.008;4.530;2023-07-09T17:42:56;21.39;79.49
73133;DHT22;61320;52.008;4.530;2023-07-09T17:45:23;21.37;79.52
73133;DHT22;61320;52.008;4.530;2023-07-09T17:47:50;21.28;79.01
73133;DHT22;61320;52.008;4.530;2023-07-09T17:50:20;21.24;79.39
73133;DHT22;61320;52.008;4.530;2023-07-09T17:52:47;21.15;78.57
73133;DHT22;61320;52.008;4.530;2023-07-09T17:55:14;21.10;79.46
73133;DHT22;61320;52.008;4.530;2023-07-09T18:00:27;20.98;79.00
73133;DHT22;61320;52.008;4.530;2023-07-09T18:02:58;20.93;79.57
73133;DHT22;61320;52.008;4.530;2023-07-09T18:05:30;20.87;79.40
73133;DHT22;61320;52.008;4.530;2023-07-09T18:07:56;20.83;79.93
73133;DHT22;61320;52.008;4.530;2023-07-09T18:10:25;20.79;79.98
73133;DHT22;61320;52.008;4.530;2023-07-09T18:12:52;20.81;80.18
73133;DHT22;61320;52.008;4.530;2023-07-09T18:15:24;20.76;79.60
73133;DHT22;61320;52.008;4.530;2023-07-09T18:17:51;20.70;79.62
73133;DHT22;61320;52.008;4.530;2023-07-09T18:20:19;20.70;79.72
73133;DHT22;61320;52.008;4.530;2023-07-09T18:22:45;20.69;80.21
73133;DHT22;61320;52.008;4.530;2023-07-09T18:25:11;20.67;79.90
73133;DHT22;61320;52.008;4.530;2023-07-09T18:27:41;20.67;80.36
73133;DHT22;61320;52.008;4.530;2023-07-09T18:32:41;20.64;80.36
73133;DHT22;61320;52.008;4.530;2023-07-09T18:35:20;20.67;80.34
73133;DHT22;61320;52.008;4.530;2023-07-09T18:37:51;20.63;80.23
73133;DHT22;61320;52.008;4.530;2023-07-09T18:40:18;20.60;80.00
73133;DHT22;61320;52.008;4.530;2023-07-09T18:42:44;20.57;80.00
73133;DHT22;61320;52.008;4.530;2023-07-09T18:45:17;20.53;79.54